LGKR

Details ICAO LGKR (CFU)
Name IOANNIS KAPODISTRIAS INTL
Region Greece
Timezone Europe/Athens (UTC+2.0)
Plans Departing 495
Arriving 761
Stats Elevation 6 ft / 2 m (AMSL)
Location 39.601779° 19.911908°
Runways 1
Magnetic Variation 4.099° E
Sunrise 2017-12-18 05:57:08 UTC / 2017-12-18 07:57:08 Local
Sunset 2017-12-18 15:19:26 UTC / 2017-12-18 17:19:26 Local
Advertisement - Login to hide

Runways

ID Width Length Bearing (true) Bearing (mag) Surface Threshold Offset Overrun Length
17 148 ft / 45 m 7,815 ft / 2,382 m 168.81° 164.71° Asphalt 1,348 ft / 411 m 0 ft / 0 m
35 148 ft / 45 m 7,815 ft / 2,382 m 348.81° 344.71° Asphalt 213 ft / 65 m 0 ft / 0 m

Map

Weather


0- 5 10 15 20 25 30 35+ Temperature / ° C

Clouds and Precipitation
Forecast for 2017-12-18 12:00 UTC. Updated an hour ago

Ground ~20,000 ft ~40,000 ft Winds

METAR

LGKR 181220Z 35012KT 9999 FEW020 SCT030 BKN080 12/05 Q1015 NOSIG

TAF

TAF LGKR 181100Z 1812/1912 32013KT 9999 SCT020 BKN080 PROB40 TEMPO 1812/1822 5000 RA SCT010 BKN020 PROB30 TEMPO 1812/1815 3000 TSRA SCT010 FEW018CB BKN020

Frequencies

Recorded 126.35 MHz ATIS
Tower 122.10 MHz KERKIRA TWR
Approach 122.10 MHz KERKIRA APP
Tower 120.85 MHz KERKIRA TWR
Approach 118.07 MHz KERKIRA APP
Approach 122.35 MHz KERKIRA APP
Warning: Do not use this data for real-world aviation or navigation. No guarantee of current accuracy is given.